sensor_id;sensor_type;location;lat;lon;timestamp;P1;durP1;ratioP1;P2;durP2;ratioP2
4021;SDS011;2025;48.260;16.432;2023-07-24T00:01:56;8.10;;;4.60;;
4021;SDS011;2025;48.260;16.432;2023-07-24T00:04:23;9.77;;;5.03;;
4021;SDS011;2025;48.260;16.432;2023-07-24T00:06:50;7.45;;;3.53;;
4021;SDS011;2025;48.260;16.432;2023-07-24T00:09:17;8.13;;;4.47;;
4021;SDS011;2025;48.260;16.432;2023-07-24T00:11:46;10.57;;;5.30;;
4021;SDS011;2025;48.260;16.432;2023-07-24T00:14:13;8.50;;;4.97;;
4021;SDS011;2025;48.260;16.432;2023-07-24T00:16:41;9.02;;;3.33;;
4021;SDS011;2025;48.260;16.432;2023-07-24T00:19:07;8.50;;;4.90;;
4021;SDS011;2025;48.260;16.432;2023-07-24T00:21:35;9.52;;;5.65;;
4021;SDS011;2025;48.260;16.432;2023-07-24T00:24:02;10.75;;;5.40;;
4021;SDS011;2025;48.260;16.432;2023-07-24T00:26:29;10.05;;;5.10;;
4021;SDS011;2025;48.260;16.432;2023-07-24T00:28:58;9.82;;;5.20;;
4021;SDS011;2025;48.260;16.432;2023-07-24T00:31:25;8.68;;;4.95;;
4021;SDS011;2025;48.260;16.432;2023-07-24T00:33:52;8.85;;;4.88;;
4021;SDS011;2025;48.260;16.432;2023-07-24T00:36:19;9.60;;;5.30;;
4021;SDS011;2025;48.260;16.432;2023-07-24T00:38:49;10.95;;;6.72;;
4021;SDS011;2025;48.260;16.432;2023-07-24T00:41:16;7.25;;;4.65;;
4021;SDS011;2025;48.260;16.432;2023-07-24T00:43:43;9.05;;;4.47;;
4021;SDS011;2025;48.260;16.432;2023-07-24T00:46:12;10.30;;;5.63;;
4021;SDS011;2025;48.260;16.432;2023-07-24T00:48:39;9.77;;;5.50;;
4021;SDS011;2025;48.260;16.432;2023-07-24T00:51:07;12.95;;;3.50;;
4021;SDS011;2025;48.260;16.432;2023-07-24T00:53:34;12.10;;;4.82;;
4021;SDS011;2025;48.260;16.432;2023-07-24T00:56:01;9.77;;;5.35;;
4021;SDS011;2025;48.260;16.432;2023-07-24T00:58:28;11.00;;;5.57;;
4021;SDS011;2025;48.260;16.432;2023-07-24T01:00:55;8.93;;;4.82;;
4021;SDS011;2025;48.260;16.432;2023-07-24T01:03:25;8.68;;;5.18;;
4021;SDS011;2025;48.260;16.432;2023-07-24T01:06:00;9.68;;;4.57;;
4021;SDS011;2025;48.260;16.432;2023-07-24T01:08:28;11.93;;;6.20;;
4021;SDS011;2025;48.260;16.432;2023-07-24T01:10:55;11.25;;;5.40;;
4021;SDS011;2025;48.260;16.432;2023-07-24T01:13:28;11.13;;;5.55;;
4021;SDS011;2025;48.260;16.432;2023-07-24T01:16:03;12.98;;;6.85;;
4021;SDS011;2025;48.260;16.432;2023-07-24T01:18:36;12.23;;;5.85;;
4021;SDS011;2025;48.260;16.432;2023-07-24T01:21:06;10.55;;;5.35;;
4021;SDS011;2025;48.260;16.432;2023-07-24T01:23:38;10.02;;;6.32;;
4021;SDS011;2025;48.260;16.432;2023-07-24T01:26:20;9.05;;;4.82;;
4021;SDS011;2025;48.260;16.432;2023-07-24T01:28:49;9.57;;;5.68;;
4021;SDS011;2025;48.260;16.432;2023-07-24T01:31:16;10.23;;;5.93;;
4021;SDS011;2025;48.260;16.432;2023-07-24T01:33:43;10.65;;;5.85;;
4021;SDS011;2025;48.260;16.432;2023-07-24T01:36:10;10.48;;;6.18;;
4021;SDS011;2025;48.260;16.432;2023-07-24T01:38:39;10.85;;;5.28;;
4021;SDS011;2025;48.260;16.432;2023-07-24T01:41:08;11.07;;;6.18;;
4021;SDS011;2025;48.260;16.432;2023-07-24T01:43:37;8.57;;;5.80;;
4021;SDS011;2025;48.260;16.432;2023-07-24T01:46:04;10.00;;;5.57;;
4021;SDS011;2025;48.260;16.432;2023-07-24T01:48:31;10.98;;;5.88;;
4021;SDS011;2025;48.260;16.432;2023-07-24T01:50:58;9.75;;;5.88;;
4021;SDS011;2025;48.260;16.432;2023-07-24T01:53:25;10.77;;;5.75;;
4021;SDS011;2025;48.260;16.432;2023-07-24T01:55:52;9.52;;;5.85;;
4021;SDS011;2025;48.260;16.432;2023-07-24T01:58:19;11.57;;;6.63;;
4021;SDS011;2025;48.260;16.432;2023-07-24T02:00:47;10.20;;;6.50;;
4021;SDS011;2025;48.260;16.432;2023-07-24T02:03:14;10.70;;;5.80;;
4021;SDS011;2025;48.260;16.432;2023-07-24T02:05:41;10.90;;;5.75;;
4021;SDS011;2025;48.260;16.432;2023-07-24T02:08:08;10.60;;;6.20;;
4021;SDS011;2025;48.260;16.432;2023-07-24T02:10:36;10.45;;;6.32;;
4021;SDS011;2025;48.260;16.432;2023-07-24T02:13:04;9.07;;;5.82;;
4021;SDS011;2025;48.260;16.432;2023-07-24T02:15:32;9.25;;;5.22;;
4021;SDS011;2025;48.260;16.432;2023-07-24T02:18:01;12.07;;;5.82;;
4021;SDS011;2025;48.260;16.432;2023-07-24T02:20:28;9.85;;;5.82;;
4021;SDS011;2025;48.260;16.432;2023-07-24T02:22:55;10.40;;;5.63;;
4021;SDS011;2025;48.260;16.432;2023-07-24T02:25:22;11.13;;;6.25;;
4021;SDS011;2025;48.260;16.432;2023-07-24T02:27:49;10.13;;;6.20;;
4021;SDS011;2025;48.260;16.432;2023-07-24T02:30:16;11.77;;;6.35;;
4021;SDS011;2025;48.260;16.432;2023-07-24T02:32:43;9.30;;;6.03;;
4021;SDS011;2025;48.260;16.432;2023-07-24T02:35:11;9.15;;;5.88;;
4021;SDS011;2025;48.260;16.432;2023-07-24T02:37:38;11.75;;;5.78;;
4021;SDS011;2025;48.260;16.432;2023-07-24T02:40:06;9.80;;;5.80;;
4021;SDS011;2025;48.260;16.432;2023-07-24T02:42:34;11.80;;;6.05;;
4021;SDS011;2025;48.260;16.432;2023-07-24T02:45:01;10.90;;;6.07;;
4021;SDS011;2025;48.260;16.432;2023-07-24T02:47:28;10.25;;;6.22;;
4021;SDS011;2025;48.260;16.432;2023-07-24T02:49:55;10.93;;;6.20;;
4021;SDS011;2025;48.260;16.432;2023-07-24T02:52:24;10.52;;;6.22;;
4021;SDS011;2025;48.260;16.432;2023-07-24T02:54:51;10.90;;;6.20;;
4021;SDS011;2025;48.260;16.432;2023-07-24T02:57:18;13.25;;;6.93;;
4021;SDS011;2025;48.260;16.432;2023-07-24T02:59:45;12.32;;;6.93;;
4021;SDS011;2025;48.260;16.432;2023-07-24T03:02:12;11.30;;;7.07;;
4021;SDS011;2025;48.260;16.432;2023-07-24T03:04:39;10.45;;;5.75;;
4021;SDS011;2025;48.260;16.432;2023-07-24T03:07:06;12.10;;;6.40;;
4021;SDS011;2025;48.260;16.432;2023-07-24T03:09:34;10.23;;;6.65;;
4021;SDS011;2025;48.260;16.432;2023-07-24T03:12:01;11.55;;;6.63;;
4021;SDS011;2025;48.260;16.432;2023-07-24T03:14:28;12.73;;;6.00;;
4021;SDS011;2025;48.260;16.432;2023-07-24T03:16:55;11.82;;;6.20;;
4021;SDS011;2025;48.260;16.432;2023-07-24T03:19:22;10.80;;;5.72;;
4021;SDS011;2025;48.260;16.432;2023-07-24T03:21:49;11.60;;;6.90;;
4021;SDS011;2025;48.260;16.432;2023-07-24T03:24:16;10.55;;;6.72;;
4021;SDS011;2025;48.260;16.432;2023-07-24T03:26:45;10.90;;;6.40;;
4021;SDS011;2025;48.260;16.432;2023-07-24T03:29:11;10.68;;;5.82;;
4021;SDS011;2025;48.260;16.432;2023-07-24T03:31:38;10.38;;;6.45;;
4021;SDS011;2025;48.260;16.432;2023-07-24T03:34:05;9.95;;;6.30;;
4021;SDS011;2025;48.260;16.432;2023-07-24T03:36:32;11.68;;;6.65;;
4021;SDS011;2025;48.260;16.432;2023-07-24T03:39:00;13.95;;;6.63;;
4021;SDS011;2025;48.260;16.432;2023-07-24T03:41:27;11.07;;;6.40;;
4021;SDS011;2025;48.260;16.432;2023-07-24T03:43:56;11.77;;;5.93;;
4021;SDS011;2025;48.260;16.432;2023-07-24T03:46:23;14.00;;;5.38;;
4021;SDS011;2025;48.260;16.432;2023-07-24T03:48:50;10.95;;;6.75;;
4021;SDS011;2025;48.260;16.432;2023-07-24T03:51:17;13.27;;;7.35;;
4021;SDS011;2025;48.260;16.432;2023-07-24T03:53:44;11.85;;;7.03;;
4021;SDS011;2025;48.260;16.432;2023-07-24T03:56:11;12.88;;;7.32;;
4021;SDS011;2025;48.260;16.432;2023-07-24T03:58:38;12.70;;;7.22;;
4021;SDS011;2025;48.260;16.432;2023-07-24T04:01:06;11.07;;;7.50;;
4021;SDS011;2025;48.260;16.432;2023-07-24T04:03:34;12.88;;;7.05;;
4021;SDS011;2025;48.260;16.432;2023-07-24T04:06:01;10.95;;;6.43;;
4021;SDS011;2025;48.260;16.432;2023-07-24T04:08:28;14.45;;;8.38;;
4021;SDS011;2025;48.260;16.432;2023-07-24T04:10:55;11.93;;;7.22;;
4021;SDS011;2025;48.260;16.432;2023-07-24T04:13:22;14.65;;;7.55;;
4021;SDS011;2025;48.260;16.432;2023-07-24T04:15:49;12.02;;;7.63;;
4021;SDS011;2025;48.260;16.432;2023-07-24T04:18:17;10.32;;;6.70;;
4021;SDS011;2025;48.260;16.432;2023-07-24T04:20:44;13.80;;;7.43;;
4021;SDS011;2025;48.260;16.432;2023-07-24T04:23:11;10.88;;;7.13;;
4021;SDS011;2025;48.260;16.432;2023-07-24T04:25:38;9.30;;;6.60;;
4021;SDS011;2025;48.260;16.432;2023-07-24T04:28:05;10.50;;;6.45;;
4021;SDS011;2025;48.260;16.432;2023-07-24T04:30:32;11.52;;;7.32;;
4021;SDS011;2025;48.260;16.432;2023-07-24T04:32:59;13.40;;;7.20;;
4021;SDS011;2025;48.260;16.432;2023-07-24T04:35:27;11.18;;;6.72;;
4021;SDS011;2025;48.260;16.432;2023-07-24T04:37:54;10.95;;;6.63;;
4021;SDS011;2025;48.260;16.432;2023-07-24T04:40:22;12.80;;;6.25;;
4021;SDS011;2025;48.260;16.432;2023-07-24T04:42:49;12.63;;;7.10;;
4021;SDS011;2025;48.260;16.432;2023-07-24T04:45:16;12.13;;;7.18;;
4021;SDS011;2025;48.260;16.432;2023-07-24T04:47:43;13.95;;;7.45;;
4021;SDS011;2025;48.260;16.432;2023-07-24T04:50:10;11.93;;;5.63;;
4021;SDS011;2025;48.260;16.432;2023-07-24T04:52:38;12.80;;;8.43;;
4021;SDS011;2025;48.260;16.432;2023-07-24T04:55:06;13.60;;;6.22;;
4021;SDS011;2025;48.260;16.432;2023-07-24T04:57:33;13.10;;;6.93;;
4021;SDS011;2025;48.260;16.432;2023-07-24T05:00:00;11.15;;;6.38;;
4021;SDS011;2025;48.260;16.432;2023-07-24T05:02:27;11.60;;;5.80;;
4021;SDS011;2025;48.260;16.432;2023-07-24T05:04:54;12.02;;;6.68;;
4021;SDS011;2025;48.260;16.432;2023-07-24T05:07:21;12.52;;;7.20;;
4021;SDS011;2025;48.260;16.432;2023-07-24T05:09:49;12.15;;;5.93;;
4021;SDS011;2025;48.260;16.432;2023-07-24T05:12:16;11.45;;;6.38;;
4021;SDS011;2025;48.260;16.432;2023-07-24T05:14:43;11.73;;;6.00;;
4021;SDS011;2025;48.260;16.432;2023-07-24T05:17:10;11.68;;;5.93;;
4021;SDS011;2025;48.260;16.432;2023-07-24T05:19:37;11.70;;;5.75;;
4021;SDS011;2025;48.260;16.432;2023-07-24T05:22:04;13.73;;;5.22;;
4021;SDS011;2025;48.260;16.432;2023-07-24T05:24:32;11.82;;;5.03;;
4021;SDS011;2025;48.260;16.432;2023-07-24T05:27:01;11.80;;;6.28;;
4021;SDS011;2025;48.260;16.432;2023-07-24T05:29:28;10.95;;;5.25;;
4021;SDS011;2025;48.260;16.432;2023-07-24T05:31:55;14.50;;;6.43;;
4021;SDS011;2025;48.260;16.432;2023-07-24T05:34:24;11.23;;;6.13;;
4021;SDS011;2025;48.260;16.432;2023-07-24T05:36:50;10.00;;;4.18;;
4021;SDS011;2025;48.260;16.432;2023-07-24T05:39:17;11.80;;;5.30;;
4021;SDS011;2025;48.260;16.432;2023-07-24T05:41:44;13.13;;;5.65;;
4021;SDS011;2025;48.260;16.432;2023-07-24T05:44:14;12.40;;;5.85;;
4021;SDS011;2025;48.260;16.432;2023-07-24T05:46:41;13.50;;;6.72;;
4021;SDS011;2025;48.260;16.432;2023-07-24T05:49:08;9.07;;;3.90;;
4021;SDS011;2025;48.260;16.432;2023-07-24T05:51:35;11.55;;;5.65;;
4021;SDS011;2025;48.260;16.432;2023-07-24T05:54:02;12.70;;;5.75;;
4021;SDS011;2025;48.260;16.432;2023-07-24T05:56:29;9.85;;;4.55;;
4021;SDS011;2025;48.260;16.432;2023-07-24T05:58:56;11.10;;;6.13;;
4021;SDS011;2025;48.260;16.432;2023-07-24T06:01:24;11.60;;;5.03;;
4021;SDS011;2025;48.260;16.432;2023-07-24T06:03:51;11.73;;;6.10;;
4021;SDS011;2025;48.260;16.432;2023-07-24T06:06:18;14.02;;;6.10;;
4021;SDS011;2025;48.260;16.432;2023-07-24T06:08:47;11.43;;;5.03;;
4021;SDS011;2025;48.260;16.432;2023-07-24T06:11:14;10.18;;;5.63;;
4021;SDS011;2025;48.260;16.432;2023-07-24T06:13:40;9.35;;;4.90;;
4021;SDS011;2025;48.260;16.432;2023-07-24T06:16:07;12.32;;;5.88;;
4021;SDS011;2025;48.260;16.432;2023-07-24T06:18:37;9.32;;;4.38;;
4021;SDS011;2025;48.260;16.432;2023-07-24T06:21:04;12.50;;;5.82;;
4021;SDS011;2025;48.260;16.432;2023-07-24T06:23:31;12.18;;;5.00;;
4021;SDS011;2025;48.260;16.432;2023-07-24T06:25:58;11.32;;;5.28;;
4021;SDS011;2025;48.260;16.432;2023-07-24T06:28:25;10.25;;;4.57;;
4021;SDS011;2025;48.260;16.432;2023-07-24T06:30:52;12.63;;;4.22;;
4021;SDS011;2025;48.260;16.432;2023-07-24T06:33:19;11.45;;;4.85;;
4021;SDS011;2025;48.260;16.432;2023-07-24T06:35:48;9.93;;;4.20;;
4021;SDS011;2025;48.260;16.432;2023-07-24T06:38:16;16.17;;;5.50;;
4021;SDS011;2025;48.260;16.432;2023-07-24T06:40:43;14.70;;;5.45;;
4021;SDS011;2025;48.260;16.432;2023-07-24T06:43:10;8.93;;;3.88;;
4021;SDS011;2025;48.260;16.432;2023-07-24T06:45:37;11.27;;;4.55;;
4021;SDS011;2025;48.260;16.432;2023-07-24T06:48:04;9.50;;;4.18;;
4021;SDS011;2025;48.260;16.432;2023-07-24T06:50:31;11.10;;;5.15;;
4021;SDS011;2025;48.260;16.432;2023-07-24T06:53:00;19.92;;;6.00;;
4021;SDS011;2025;48.260;16.432;2023-07-24T06:55:27;12.73;;;4.13;;
4021;SDS011;2025;48.260;16.432;2023-07-24T06:57:53;11.68;;;4.50;;
4021;SDS011;2025;48.260;16.432;2023-07-24T07:00:20;10.50;;;4.43;;
4021;SDS011;2025;48.260;16.432;2023-07-24T07:02:47;14.68;;;4.28;;
4021;SDS011;2025;48.260;16.432;2023-07-24T07:05:14;12.30;;;4.75;;
4021;SDS011;2025;48.260;16.432;2023-07-24T07:07:41;9.80;;;4.60;;
4021;SDS011;2025;48.260;16.432;2023-07-24T07:10:10;10.98;;;4.35;;
4021;SDS011;2025;48.260;16.432;2023-07-24T07:12:37;9.50;;;4.57;;
4021;SDS011;2025;48.260;16.432;2023-07-24T07:15:04;8.68;;;3.80;;
4021;SDS011;2025;48.260;16.432;2023-07-24T07:17:32;11.00;;;4.38;;
4021;SDS011;2025;48.260;16.432;2023-07-24T07:19:58;11.98;;;4.25;;
4021;SDS011;2025;48.260;16.432;2023-07-24T07:22:25;9.88;;;4.53;;
4021;SDS011;2025;48.260;16.432;2023-07-24T07:24:52;9.85;;;5.55;;
4021;SDS011;2025;48.260;16.432;2023-07-24T07:27:21;9.85;;;4.88;;
4021;SDS011;2025;48.260;16.432;2023-07-24T07:29:48;10.48;;;4.22;;
4021;SDS011;2025;48.260;16.432;2023-07-24T07:32:15;10.93;;;4.07;;
4021;SDS011;2025;48.260;16.432;2023-07-24T07:34:42;9.32;;;3.67;;
4021;SDS011;2025;48.260;16.432;2023-07-24T07:37:09;9.00;;;4.00;;
4021;SDS011;2025;48.260;16.432;2023-07-24T07:39:36;9.38;;;4.68;;
4021;SDS011;2025;48.260;16.432;2023-07-24T07:42:03;9.00;;;4.55;;
4021;SDS011;2025;48.260;16.432;2023-07-24T07:44:32;11.07;;;4.53;;
4021;SDS011;2025;48.260;16.432;2023-07-24T07:46:59;9.20;;;4.43;;
4021;SDS011;2025;48.260;16.432;2023-07-24T07:49:26;11.38;;;5.30;;
4021;SDS011;2025;48.260;16.432;2023-07-24T07:51:53;11.65;;;4.57;;
4021;SDS011;2025;48.260;16.432;2023-07-24T07:54:20;11.27;;;5.50;;
4021;SDS011;2025;48.260;16.432;2023-07-24T07:56:47;10.80;;;4.70;;
4021;SDS011;2025;48.260;16.432;2023-07-24T07:59:14;10.38;;;5.35;;
4021;SDS011;2025;48.260;16.432;2023-07-24T08:01:42;12.35;;;4.35;;
4021;SDS011;2025;48.260;16.432;2023-07-24T08:04:11;9.63;;;4.78;;
4021;SDS011;2025;48.260;16.432;2023-07-24T08:06:37;12.25;;;5.78;;
4021;SDS011;2025;48.260;16.432;2023-07-24T08:09:04;9.43;;;4.72;;
4021;SDS011;2025;48.260;16.432;2023-07-24T08:11:31;12.82;;;5.88;;
4021;SDS011;2025;48.260;16.432;2023-07-24T08:13:58;13.38;;;5.07;;
4021;SDS011;2025;48.260;16.432;2023-07-24T08:16:25;11.85;;;5.38;;
4021;SDS011;2025;48.260;16.432;2023-07-24T08:18:54;11.52;;;4.78;;
4021;SDS011;2025;48.260;16.432;2023-07-24T08:21:20;11.02;;;3.95;;
4021;SDS011;2025;48.260;16.432;2023-07-24T08:23:47;10.50;;;4.82;;
4021;SDS011;2025;48.260;16.432;2023-07-24T08:26:15;9.95;;;4.32;;
4021;SDS011;2025;48.260;16.432;2023-07-24T08:28:41;9.93;;;4.38;;
4021;SDS011;2025;48.260;16.432;2023-07-24T08:31:08;10.05;;;4.53;;
4021;SDS011;2025;48.260;16.432;2023-07-24T08:33:36;10.57;;;4.43;;
4021;SDS011;2025;48.260;16.432;2023-07-24T08:36:04;9.88;;;4.13;;
4021;SDS011;2025;48.260;16.432;2023-07-24T08:38:33;11.15;;;3.95;;
4021;SDS011;2025;48.260;16.432;2023-07-24T08:41:00;9.70;;;4.00;;
4021;SDS011;2025;48.260;16.432;2023-07-24T08:43:28;8.98;;;3.75;;
4021;SDS011;2025;48.260;16.432;2023-07-24T08:45:57;10.23;;;4.07;;
4021;SDS011;2025;48.260;16.432;2023-07-24T08:48:25;8.85;;;3.58;;
4021;SDS011;2025;48.260;16.432;2023-07-24T08:50:53;9.63;;;4.68;;
4021;SDS011;2025;48.260;16.432;2023-07-24T08:53:22;8.32;;;3.95;;
4021;SDS011;2025;48.260;16.432;2023-07-24T08:55:50;9.88;;;4.60;;
4021;SDS011;2025;48.260;16.432;2023-07-24T08:58:19;8.55;;;3.40;;
4021;SDS011;2025;48.260;16.432;2023-07-24T09:00:47;12.43;;;5.60;;
4021;SDS011;2025;48.260;16.432;2023-07-24T09:03:14;10.70;;;3.40;;
4021;SDS011;2025;48.260;16.432;2023-07-24T09:05:41;8.52;;;3.33;;
4021;SDS011;2025;48.260;16.432;2023-07-24T09:08:08;9.18;;;4.28;;
4021;SDS011;2025;48.260;16.432;2023-07-24T09:10:36;8.50;;;3.53;;
4021;SDS011;2025;48.260;16.432;2023-07-24T09:13:03;9.50;;;4.28;;
4021;SDS011;2025;48.260;16.432;2023-07-24T09:15:38;9.38;;;3.55;;
4021;SDS011;2025;48.260;16.432;2023-07-24T09:18:06;8.80;;;3.33;;
4021;SDS011;2025;48.260;16.432;2023-07-24T09:20:38;11.75;;;3.33;;
4021;SDS011;2025;48.260;16.432;2023-07-24T09:23:06;10.93;;;3.55;;
4021;SDS011;2025;48.260;16.432;2023-07-24T09:25:36;10.00;;;3.50;;
4021;SDS011;2025;48.260;16.432;2023-07-24T09:28:10;11.10;;;3.88;;
4021;SDS011;2025;48.260;16.432;2023-07-24T09:30:38;10.13;;;5.25;;
4021;SDS011;2025;48.260;16.432;2023-07-24T09:33:06;10.55;;;2.97;;
4021;SDS011;2025;48.260;16.432;2023-07-24T09:35:33;8.95;;;3.22;;
4021;SDS011;2025;48.260;16.432;2023-07-24T09:38:02;9.10;;;3.72;;
4021;SDS011;2025;48.260;16.432;2023-07-24T09:40:42;7.97;;;4.45;;
4021;SDS011;2025;48.260;16.432;2023-07-24T09:43:15;8.73;;;4.00;;
4021;SDS011;2025;48.260;16.432;2023-07-24T09:48:11;9.38;;;3.83;;
4021;SDS011;2025;48.260;16.432;2023-07-24T09:50:40;10.35;;;4.68;;
4021;SDS011;2025;48.260;16.432;2023-07-24T09:53:09;11.55;;;4.28;;
4021;SDS011;2025;48.260;16.432;2023-07-24T09:55:43;8.32;;;3.92;;
4021;SDS011;2025;48.260;16.432;2023-07-24T09:58:15;11.20;;;3.92;;
4021;SDS011;2025;48.260;16.432;2023-07-24T10:00:44;9.60;;;3.85;;
4021;SDS011;2025;48.260;16.432;2023-07-24T10:03:13;8.80;;;3.42;;
4021;SDS011;2025;48.260;16.432;2023-07-24T10:05:41;11.00;;;3.47;;
4021;SDS011;2025;48.260;16.432;2023-07-24T10:08:09;8.50;;;3.63;;
4021;SDS011;2025;48.260;16.432;2023-07-24T10:10:37;9.15;;;3.83;;
4021;SDS011;2025;48.260;16.432;2023-07-24T10:13:07;8.75;;;3.30;;
4021;SDS011;2025;48.260;16.432;2023-07-24T10:15:36;8.65;;;4.20;;
4021;SDS011;2025;48.260;16.432;2023-07-24T10:18:04;11.25;;;3.35;;
4021;SDS011;2025;48.260;16.432;2023-07-24T10:20:33;9.00;;;2.92;;
4021;SDS011;2025;48.260;16.432;2023-07-24T10:23:01;10.60;;;3.45;;
4021;SDS011;2025;48.260;16.432;2023-07-24T10:25:29;11.05;;;4.38;;
4021;SDS011;2025;48.260;16.432;2023-07-24T10:28:01;9.98;;;3.55;;
4021;SDS011;2025;48.260;16.432;2023-07-24T10:30:34;9.55;;;3.80;;
4021;SDS011;2025;48.260;16.432;2023-07-24T10:33:08;8.55;;;4.20;;
4021;SDS011;2025;48.260;16.432;2023-07-24T10:35:37;8.85;;;3.60;;
4021;SDS011;2025;48.260;16.432;2023-07-24T10:38:05;7.53;;;3.22;;
4021;SDS011;2025;48.260;16.432;2023-07-24T10:40:32;9.40;;;4.05;;
4021;SDS011;2025;48.260;16.432;2023-07-24T10:43:00;7.80;;;3.95;;
4021;SDS011;2025;48.260;16.432;2023-07-24T10:45:46;9.02;;;3.50;;
4021;SDS011;2025;48.260;16.432;2023-07-24T10:48:14;9.23;;;3.42;;
4021;SDS011;2025;48.260;16.432;2023-07-24T10:50:42;9.45;;;3.70;;
4021;SDS011;2025;48.260;16.432;2023-07-24T10:53:10;9.98;;;5.00;;
4021;SDS011;2025;48.260;16.432;2023-07-24T10:55:38;8.90;;;4.28;;
4021;SDS011;2025;48.260;16.432;2023-07-24T10:58:05;9.32;;;3.83;;
4021;SDS011;2025;48.260;16.432;2023-07-24T11:00:32;10.70;;;3.88;;
4021;SDS011;2025;48.260;16.432;2023-07-24T11:03:01;8.68;;;3.35;;
4021;SDS011;2025;48.260;16.432;2023-07-24T11:05:28;10.27;;;4.82;;
4021;SDS011;2025;48.260;16.432;2023-07-24T11:07:56;10.50;;;3.90;;
4021;SDS011;2025;48.260;16.432;2023-07-24T11:10:23;9.15;;;3.85;;
4021;SDS011;2025;48.260;16.432;2023-07-24T11:12:51;10.50;;;3.92;;
4021;SDS011;2025;48.260;16.432;2023-07-24T11:15:23;8.70;;;3.97;;
4021;SDS011;2025;48.260;16.432;2023-07-24T11:17:52;9.38;;;4.57;;
4021;SDS011;2025;48.260;16.432;2023-07-24T11:20:20;10.63;;;5.00;;
4021;SDS011;2025;48.260;16.432;2023-07-24T11:22:47;12.35;;;4.43;;
4021;SDS011;2025;48.260;16.432;2023-07-24T11:25:14;10.13;;;4.68;;
4021;SDS011;2025;48.260;16.432;2023-07-24T11:27:42;10.52;;;4.88;;
4021;SDS011;2025;48.260;16.432;2023-07-24T11:30:10;10.10;;;5.05;;
4021;SDS011;2025;48.260;16.432;2023-07-24T11:32:38;8.40;;;3.70;;
4021;SDS011;2025;48.260;16.432;2023-07-24T11:35:06;9.57;;;3.88;;
4021;SDS011;2025;48.260;16.432;2023-07-24T11:37:36;9.13;;;3.75;;
4021;SDS011;2025;48.260;16.432;2023-07-24T11:40:03;8.90;;;4.25;;
4021;SDS011;2025;48.260;16.432;2023-07-24T11:42:36;10.23;;;3.95;;
4021;SDS011;2025;48.260;16.432;2023-07-24T11:45:05;11.50;;;4.10;;
4021;SDS011;2025;48.260;16.432;2023-07-24T11:47:44;12.90;;;5.25;;
4021;SDS011;2025;48.260;16.432;2023-07-24T11:50:12;8.30;;;3.78;;
4021;SDS011;2025;48.260;16.432;2023-07-24T11:52:41;11.43;;;3.70;;
4021;SDS011;2025;48.260;16.432;2023-07-24T11:55:11;12.30;;;4.03;;
4021;SDS011;2025;48.260;16.432;2023-07-24T11:57:38;10.73;;;4.68;;
4021;SDS011;2025;48.260;16.432;2023-07-24T12:00:06;9.98;;;4.05;;
4021;SDS011;2025;48.260;16.432;2023-07-24T12:02:45;11.38;;;4.55;;
4021;SDS011;2025;48.260;16.432;2023-07-24T12:05:12;10.95;;;5.30;;
4021;SDS011;2025;48.260;16.432;2023-07-24T12:07:41;9.50;;;3.63;;
4021;SDS011;2025;48.260;16.432;2023-07-24T12:10:10;8.88;;;3.50;;
4021;SDS011;2025;48.260;16.432;2023-07-24T12:12:39;10.43;;;4.25;;
4021;SDS011;2025;48.260;16.432;2023-07-24T12:15:07;10.00;;;3.63;;
4021;SDS011;2025;48.260;16.432;2023-07-24T12:17:35;9.73;;;3.67;;
4021;SDS011;2025;48.260;16.432;2023-07-24T12:20:02;9.07;;;4.47;;
4021;SDS011;2025;48.260;16.432;2023-07-24T12:22:31;11.32;;;4.03;;
4021;SDS011;2025;48.260;16.432;2023-07-24T12:24:59;8.82;;;3.63;;
4021;SDS011;2025;48.260;16.432;2023-07-24T12:27:26;10.30;;;4.00;;
4021;SDS011;2025;48.260;16.432;2023-07-24T12:29:53;11.20;;;4.18;;
4021;SDS011;2025;48.260;16.432;2023-07-24T12:32:20;9.95;;;4.10;;
4021;SDS011;2025;48.260;16.432;2023-07-24T12:34:48;13.82;;;4.07;;
4021;SDS011;2025;48.260;16.432;2023-07-24T12:37:16;11.52;;;4.47;;
4021;SDS011;2025;48.260;16.432;2023-07-24T12:39:43;10.25;;;4.32;;
4021;SDS011;2025;48.260;16.432;2023-07-24T12:42:12;12.93;;;3.75;;
4021;SDS011;2025;48.260;16.432;2023-07-24T12:44:39;10.88;;;3.90;;
4021;SDS011;2025;48.260;16.432;2023-07-24T12:47:07;10.90;;;4.00;;
4021;SDS011;2025;48.260;16.432;2023-07-24T12:49:34;11.63;;;4.28;;
4021;SDS011;2025;48.260;16.432;2023-07-24T12:52:01;10.88;;;4.85;;
4021;SDS011;2025;48.260;16.432;2023-07-24T12:54:29;13.57;;;4.45;;
4021;SDS011;2025;48.260;16.432;2023-07-24T12:56:56;11.57;;;4.82;;
4021;SDS011;2025;48.260;16.432;2023-07-24T12:59:24;14.13;;;4.40;;
4021;SDS011;2025;48.260;16.432;2023-07-24T13:01:51;9.35;;;3.47;;
4021;SDS011;2025;48.260;16.432;2023-07-24T13:04:18;14.02;;;4.63;;
4021;SDS011;2025;48.260;16.432;2023-07-24T13:06:46;11.52;;;5.05;;
4021;SDS011;2025;48.260;16.432;2023-07-24T13:09:13;13.10;;;4.45;;
4021;SDS011;2025;48.260;16.432;2023-07-24T13:11:40;10.15;;;4.40;;
4021;SDS011;2025;48.260;16.432;2023-07-24T13:14:07;9.68;;;4.20;;
4021;SDS011;2025;48.260;16.432;2023-07-24T13:16:35;11.55;;;4.47;;
4021;SDS011;2025;48.260;16.432;2023-07-24T13:19:02;11.45;;;4.38;;
4021;SDS011;2025;48.260;16.432;2023-07-24T13:21:29;11.27;;;4.53;;
4021;SDS011;2025;48.260;16.432;2023-07-24T13:23:56;9.95;;;4.35;;
4021;SDS011;2025;48.260;16.432;2023-07-24T13:26:23;12.35;;;4.78;;
4021;SDS011;2025;48.260;16.432;2023-07-24T13:28:50;12.60;;;4.18;;
4021;SDS011;2025;48.260;16.432;2023-07-24T13:31:17;13.45;;;4.63;;
4021;SDS011;2025;48.260;16.432;2023-07-24T13:33:47;12.35;;;4.82;;
4021;SDS011;2025;48.260;16.432;2023-07-24T13:36:14;11.35;;;5.10;;
4021;SDS011;2025;48.260;16.432;2023-07-24T13:38:41;10.50;;;4.43;;
4021;SDS011;2025;48.260;16.432;2023-07-24T13:41:09;11.48;;;4.28;;
4021;SDS011;2025;48.260;16.432;2023-07-24T13:43:36;16.05;;;5.95;;
4021;SDS011;2025;48.260;16.432;2023-07-24T13:46:03;11.90;;;4.63;;
4021;SDS011;2025;48.260;16.432;2023-07-24T13:48:30;11.60;;;5.18;;
4021;SDS011;2025;48.260;16.432;2023-07-24T13:50:58;15.48;;;5.40;;
4021;SDS011;2025;48.260;16.432;2023-07-24T13:53:26;13.52;;;5.25;;
4021;SDS011;2025;48.260;16.432;2023-07-24T13:55:53;11.68;;;5.65;;
4021;SDS011;2025;48.260;16.432;2023-07-24T13:58:20;16.10;;;6.95;;
4021;SDS011;2025;48.260;16.432;2023-07-24T14:00:47;12.27;;;5.43;;
4021;SDS011;2025;48.260;16.432;2023-07-24T14:03:14;13.88;;;6.78;;
4021;SDS011;2025;48.260;16.432;2023-07-24T14:05:41;13.07;;;7.15;;
4021;SDS011;2025;48.260;16.432;2023-07-24T14:08:09;11.55;;;5.35;;
4021;SDS011;2025;48.260;16.432;2023-07-24T14:10:36;13.75;;;6.22;;
4021;SDS011;2025;48.260;16.432;2023-07-24T14:13:03;12.48;;;5.22;;
4021;SDS011;2025;48.260;16.432;2023-07-24T14:15:30;12.77;;;5.35;;
4021;SDS011;2025;48.260;16.432;2023-07-24T14:17:57;13.60;;;6.03;;
4021;SDS011;2025;48.260;16.432;2023-07-24T14:20:24;12.68;;;5.63;;
4021;SDS011;2025;48.260;16.432;2023-07-24T14:22:51;14.73;;;5.50;;
4021;SDS011;2025;48.260;16.432;2023-07-24T14:25:20;14.30;;;5.85;;
4021;SDS011;2025;48.260;16.432;2023-07-24T14:27:47;10.85;;;5.28;;
4021;SDS011;2025;48.260;16.432;2023-07-24T14:30:14;12.43;;;4.97;;
4021;SDS011;2025;48.260;16.432;2023-07-24T14:32:41;11.68;;;5.63;;
4021;SDS011;2025;48.260;16.432;2023-07-24T14:35:08;15.20;;;5.65;;
4021;SDS011;2025;48.260;16.432;2023-07-24T14:37:35;11.93;;;5.07;;
4021;SDS011;2025;48.260;16.432;2023-07-24T14:40:02;12.80;;;5.63;;
4021;SDS011;2025;48.260;16.432;2023-07-24T14:42:31;12.15;;;5.53;;
4021;SDS011;2025;48.260;16.432;2023-07-24T14:44:58;11.18;;;5.10;;
4021;SDS011;2025;48.260;16.432;2023-07-24T14:47:27;13.93;;;6.18;;
4021;SDS011;2025;48.260;16.432;2023-07-24T14:49:54;12.85;;;5.25;;
4021;SDS011;2025;48.260;16.432;2023-07-24T14:52:23;13.90;;;5.50;;
4021;SDS011;2025;48.260;16.432;2023-07-24T14:54:50;14.73;;;5.10;;
4021;SDS011;2025;48.260;16.432;2023-07-24T14:57:17;12.98;;;6.10;;
4021;SDS011;2025;48.260;16.432;2023-07-24T14:59:45;11.38;;;4.97;;